sensor_id;sensor_type;location;lat;lon;timestamp;pressure;altitude;pressure_sealevel;temperature;humidity
65758;BME280;52495;52.208;5.158;2022-08-21T00:01:36;101648.31;;;16.20;75.32
65758;BME280;52495;52.208;5.158;2022-08-21T00:04:04;101646.50;;;16.22;75.19
65758;BME280;52495;52.208;5.158;2022-08-21T00:06:33;101646.44;;;16.24;75.06
65758;BME280;52495;52.208;5.158;2022-08-21T00:09:00;101645.59;;;16.23;75.11
65758;BME280;52495;52.208;5.158;2022-08-21T00:11:27;101637.81;;;16.22;75.19
65758;BME280;52495;52.208;5.158;2022-08-21T00:13:54;101643.94;;;16.21;75.11
65758;BME280;52495;52.208;5.158;2022-08-21T00:16:21;101637.09;;;16.17;75.04
65758;BME280;52495;52.208;5.158;2022-08-21T00:18:48;101642.28;;;16.17;75.25
65758;BME280;52495;52.208;5.158;2022-08-21T00:21:15;101640.59;;;16.16;75.25
65758;BME280;52495;52.208;5.158;2022-08-21T00:23:44;101635.50;;;16.13;75.42
65758;BME280;52495;52.208;5.158;2022-08-21T00:26:11;101633.66;;;16.16;75.33
65758;BME280;52495;52.208;5.158;2022-08-21T00:28:37;101626.72;;;16.15;75.49
65758;BME280;52495;52.208;5.158;2022-08-21T00:31:04;101630.28;;;16.13;75.47
65758;BME280;52495;52.208;5.158;2022-08-21T00:33:31;101625.97;;;16.12;75.79
65758;BME280;52495;52.208;5.158;2022-08-21T00:35:58;101627.75;;;16.10;75.75
65758;BME280;52495;52.208;5.158;2022-08-21T00:38:25;101622.56;;;16.08;75.98
65758;BME280;52495;52.208;5.158;2022-08-21T00:40:56;101623.47;;;16.07;76.14
65758;BME280;52495;52.208;5.158;2022-08-21T00:43:26;101622.69;;;16.03;76.17
65758;BME280;52495;52.208;5.158;2022-08-21T00:45:54;101617.63;;;15.99;76.52
65758;BME280;52495;52.208;5.158;2022-08-21T00:48:22;101625.38;;;16.00;76.78
65758;BME280;52495;52.208;5.158;2022-08-21T00:50:52;101620.22;;;15.99;76.95
65758;BME280;52495;52.208;5.158;2022-08-21T00:53:21;101620.25;;;15.97;77.33
65758;BME280;52495;52.208;5.158;2022-08-21T00:55:48;101624.63;;;15.97;77.52
65758;BME280;52495;52.208;5.158;2022-08-21T00:58:17;101625.50;;;15.96;77.59
65758;BME280;52495;52.208;5.158;2022-08-21T01:00:45;101622.06;;;15.95;77.75
65758;BME280;52495;52.208;5.158;2022-08-21T01:03:15;101629.91;;;15.93;77.98
65758;BME280;52495;52.208;5.158;2022-08-21T01:05:44;101626.47;;;15.93;78.03
65758;BME280;52495;52.208;5.158;2022-08-21T01:08:12;101624.69;;;15.93;78.13
65758;BME280;52495;52.208;5.158;2022-08-21T01:10:39;101618.72;;;15.90;78.06
65758;BME280;52495;52.208;5.158;2022-08-21T01:13:08;101626.50;;;15.91;78.18
65758;BME280;52495;52.208;5.158;2022-08-21T01:15:38;101624.00;;;15.88;78.19
65758;BME280;52495;52.208;5.158;2022-08-21T01:18:08;101635.25;;;15.89;78.30
65758;BME280;52495;52.208;5.158;2022-08-21T01:20:37;101630.94;;;15.88;78.07
65758;BME280;52495;52.208;5.158;2022-08-21T01:23:06;101632.72;;;15.86;78.54
65758;BME280;52495;52.208;5.158;2022-08-21T01:25:34;101629.28;;;15.85;78.58
65758;BME280;52495;52.208;5.158;2022-08-21T01:28:07;101626.72;;;15.82;78.70
65758;BME280;52495;52.208;5.158;2022-08-21T01:30:36;101632.75;;;15.83;78.66
65758;BME280;52495;52.208;5.158;2022-08-21T01:33:04;101625.91;;;15.80;78.44
65758;BME280;52495;52.208;5.158;2022-08-21T01:35:31;101630.28;;;15.80;78.69
65758;BME280;52495;52.208;5.158;2022-08-21T01:37:58;101619.06;;;15.76;78.79
65758;BME280;52495;52.208;5.158;2022-08-21T01:40:26;101626.78;;;15.79;78.71
65758;BME280;52495;52.208;5.158;2022-08-21T01:42:53;101630.34;;;15.76;78.78
65758;BME280;52495;52.208;5.158;2022-08-21T01:45:20;101619.94;;;15.76;78.76
65758;BME280;52495;52.208;5.158;2022-08-21T01:47:46;101621.75;;;15.73;79.00
65758;BME280;52495;52.208;5.158;2022-08-21T01:50:15;101624.34;;;15.73;78.95
65758;BME280;52495;52.208;5.158;2022-08-21T01:52:42;101610.53;;;15.71;79.14
65758;BME280;52495;52.208;5.158;2022-08-21T01:55:11;101618.34;;;15.71;79.30
65758;BME280;52495;52.208;5.158;2022-08-21T01:57:39;101619.25;;;15.70;79.35
65758;BME280;52495;52.208;5.158;2022-08-21T02:00:09;101613.13;;;15.71;79.27
65758;BME280;52495;52.208;5.158;2022-08-21T02:02:40;101603.69;;;15.67;79.81
65758;BME280;52495;52.208;5.158;2022-08-21T02:05:08;101610.59;;;15.68;79.98
65758;BME280;52495;52.208;5.158;2022-08-21T02:07:36;101602.81;;;15.68;79.75
65758;BME280;52495;52.208;5.158;2022-08-21T02:10:07;101607.13;;;15.67;79.78
65758;BME280;52495;52.208;5.158;2022-08-21T02:12:34;101608.91;;;15.65;79.79
65758;BME280;52495;52.208;5.158;2022-08-21T02:15:03;101608.09;;;15.65;79.86
65758;BME280;52495;52.208;5.158;2022-08-21T02:17:37;101606.44;;;15.62;79.87
65758;BME280;52495;52.208;5.158;2022-08-21T02:20:05;101604.66;;;15.62;79.77
65758;BME280;52495;52.208;5.158;2022-08-21T02:22:31;101611.56;;;15.63;79.93
65758;BME280;52495;52.208;5.158;2022-08-21T02:24:58;101605.56;;;15.61;80.13
65758;BME280;52495;52.208;5.158;2022-08-21T02:27:25;101602.94;;;15.61;80.17
65758;BME280;52495;52.208;5.158;2022-08-21T02:29:52;101596.94;;;15.59;80.29
65758;BME280;52495;52.208;5.158;2022-08-21T02:32:20;101596.94;;;15.59;80.23
65758;BME280;52495;52.208;5.158;2022-08-21T02:34:47;101592.63;;;15.58;80.14
65758;BME280;52495;52.208;5.158;2022-08-21T02:37:15;101590.88;;;15.59;80.08
65758;BME280;52495;52.208;5.158;2022-08-21T02:39:41;101593.50;;;15.57;80.34
65758;BME280;52495;52.208;5.158;2022-08-21T02:42:08;101588.34;;;15.56;80.11
65758;BME280;52495;52.208;5.158;2022-08-21T02:44:35;101584.03;;;15.55;80.39
65758;BME280;52495;52.208;5.158;2022-08-21T02:47:01;101591.84;;;15.55;80.52
65758;BME280;52495;52.208;5.158;2022-08-21T02:49:29;101591.91;;;15.53;80.70
65758;BME280;52495;52.208;5.158;2022-08-21T02:51:56;101588.47;;;15.51;80.63
65758;BME280;52495;52.208;5.158;2022-08-21T02:54:22;101593.69;;;15.51;80.60
65758;BME280;52495;52.208;5.158;2022-08-21T02:56:49;101585.94;;;15.48;80.95
65758;BME280;52495;52.208;5.158;2022-08-21T02:59:16;101582.47;;;15.49;80.77
65758;BME280;52495;52.208;5.158;2022-08-21T03:01:43;101586.78;;;15.48;81.09
65758;BME280;52495;52.208;5.158;2022-08-21T03:04:10;101581.63;;;15.47;80.90
65758;BME280;52495;52.208;5.158;2022-08-21T03:06:38;101590.34;;;15.46;80.89
65758;BME280;52495;52.208;5.158;2022-08-21T03:09:04;101578.28;;;15.43;80.95
65758;BME280;52495;52.208;5.158;2022-08-21T03:11:31;101586.97;;;15.42;81.11
65758;BME280;52495;52.208;5.158;2022-08-21T03:13:58;101574.88;;;15.40;81.09
65758;BME280;52495;52.208;5.158;2022-08-21T03:16:25;101579.22;;;15.39;81.32
65758;BME280;52495;52.208;5.158;2022-08-21T03:18:53;101574.09;;;15.36;81.50
65758;BME280;52495;52.208;5.158;2022-08-21T03:21:19;101567.19;;;15.35;81.26
65758;BME280;52495;52.208;5.158;2022-08-21T03:23:47;101575.03;;;15.33;81.54
65758;BME280;52495;52.208;5.158;2022-08-21T03:26:14;101572.44;;;15.33;81.41
65758;BME280;52495;52.208;5.158;2022-08-21T03:28:41;101563.84;;;15.30;81.53
65758;BME280;52495;52.208;5.158;2022-08-21T03:31:08;101570.84;;;15.28;81.20
65758;BME280;52495;52.208;5.158;2022-08-21T03:33:36;101573.47;;;15.28;81.34
65758;BME280;52495;52.208;5.158;2022-08-21T03:36:06;101571.75;;;15.25;81.56
65758;BME280;52495;52.208;5.158;2022-08-21T03:38:34;101568.31;;;15.25;81.71
65758;BME280;52495;52.208;5.158;2022-08-21T03:41:03;101575.38;;;15.20;81.67
65758;BME280;52495;52.208;5.158;2022-08-21T03:43:31;101565.81;;;15.20;81.94
65758;BME280;52495;52.208;5.158;2022-08-21T03:45:58;101558.06;;;15.18;81.95
65758;BME280;52495;52.208;5.158;2022-08-21T03:48:25;101564.16;;;15.17;81.97
65758;BME280;52495;52.208;5.158;2022-08-21T03:50:52;101556.41;;;15.16;82.11
65758;BME280;52495;52.208;5.158;2022-08-21T03:53:19;101560.84;;;15.11;82.39
65758;BME280;52495;52.208;5.158;2022-08-21T03:55:47;101564.34;;;15.10;82.72
65758;BME280;52495;52.208;5.158;2022-08-21T03:58:18;101559.16;;;15.10;82.38
65758;BME280;52495;52.208;5.158;2022-08-21T04:00:47;101558.31;;;15.09;82.13
65758;BME280;52495;52.208;5.158;2022-08-21T04:03:14;101560.94;;;15.08;82.29
65758;BME280;52495;52.208;5.158;2022-08-21T04:05:41;101558.38;;;15.06;82.18
65758;BME280;52495;52.208;5.158;2022-08-21T04:08:11;101554.09;;;15.03;82.58
65758;BME280;52495;52.208;5.158;2022-08-21T04:10:39;101556.72;;;15.02;82.12
65758;BME280;52495;52.208;5.158;2022-08-21T04:13:08;101559.41;;;14.99;82.79
65758;BME280;52495;52.208;5.158;2022-08-21T04:15:36;101553.38;;;14.98;82.68
65758;BME280;52495;52.208;5.158;2022-08-21T04:18:06;101555.97;;;14.98;82.49
65758;BME280;52495;52.208;5.158;2022-08-21T04:20:33;101562.06;;;14.97;82.63
65758;BME280;52495;52.208;5.158;2022-08-21T04:23:00;101565.53;;;14.96;82.67
65758;BME280;52495;52.208;5.158;2022-08-21T04:25:27;101562.97;;;14.95;82.76
65758;BME280;52495;52.208;5.158;2022-08-21T04:27:54;101565.56;;;14.95;82.66
65758;BME280;52495;52.208;5.158;2022-08-21T04:30:21;101561.34;;;14.91;82.85
65758;BME280;52495;52.208;5.158;2022-08-21T04:32:50;101566.56;;;14.91;82.86
65758;BME280;52495;52.208;5.158;2022-08-21T04:35:20;101569.09;;;14.92;83.06
65758;BME280;52495;52.208;5.158;2022-08-21T04:37:47;101566.50;;;14.92;82.98
65758;BME280;52495;52.208;5.158;2022-08-21T04:40:16;101582.97;;;14.93;83.19
65758;BME280;52495;52.208;5.158;2022-08-21T04:42:45;101572.56;;;14.93;83.57
65758;BME280;52495;52.208;5.158;2022-08-21T04:45:17;101578.56;;;14.95;83.21
65758;BME280;52495;52.208;5.158;2022-08-21T04:47:48;101580.31;;;14.94;83.53
65758;BME280;52495;52.208;5.158;2022-08-21T04:50:15;101581.16;;;14.96;83.66
65758;BME280;52495;52.208;5.158;2022-08-21T04:52:56;101586.28;;;14.99;83.89
65758;BME280;52495;52.208;5.158;2022-08-21T04:55:24;101582.78;;;15.00;84.00
65758;BME280;52495;52.208;5.158;2022-08-21T04:57:52;101578.44;;;15.01;83.69
65758;BME280;52495;52.208;5.158;2022-08-21T05:00:20;101586.22;;;15.02;83.70
65758;BME280;52495;52.208;5.158;2022-08-21T05:02:53;101588.81;;;15.02;83.77
65758;BME280;52495;52.208;5.158;2022-08-21T05:05:21;101586.13;;;15.06;83.71
65758;BME280;52495;52.208;5.158;2022-08-21T05:07:48;101586.94;;;15.08;83.92
65758;BME280;52495;52.208;5.158;2022-08-21T05:10:15;101586.94;;;15.08;83.90
65758;BME280;52495;52.208;5.158;2022-08-21T05:12:43;101590.41;;;15.08;83.86
65758;BME280;52495;52.208;5.158;2022-08-21T05:15:11;101592.97;;;15.10;84.13
65758;BME280;52495;52.208;5.158;2022-08-21T05:17:38;101589.41;;;15.14;83.70
65758;BME280;52495;52.208;5.158;2022-08-21T05:20:07;101587.63;;;15.14;83.84
65758;BME280;52495;52.208;5.158;2022-08-21T05:22:34;101595.38;;;15.17;83.92
65758;BME280;52495;52.208;5.158;2022-08-21T05:25:01;101596.25;;;15.18;84.17
65758;BME280;52495;52.208;5.158;2022-08-21T05:27:27;101591.03;;;15.18;84.32
65758;BME280;52495;52.208;5.158;2022-08-21T05:29:55;101596.13;;;15.21;84.41
65758;BME280;52495;52.208;5.158;2022-08-21T05:32:23;101602.16;;;15.23;84.13
65758;BME280;52495;52.208;5.158;2022-08-21T05:34:50;101596.94;;;15.25;84.29
65758;BME280;52495;52.208;5.158;2022-08-21T05:37:18;101600.38;;;15.27;84.60
65758;BME280;52495;52.208;5.158;2022-08-21T05:39:44;101608.06;;;15.30;84.60
65758;BME280;52495;52.208;5.158;2022-08-21T05:42:11;101602.78;;;15.35;84.48
65758;BME280;52495;52.208;5.158;2022-08-21T05:44:38;101605.28;;;15.38;84.92
65758;BME280;52495;52.208;5.158;2022-08-21T05:47:06;101607.78;;;15.42;84.89
65758;BME280;52495;52.208;5.158;2022-08-21T05:49:33;101600.75;;;15.46;85.07
65758;BME280;52495;52.208;5.158;2022-08-21T05:51:59;101598.00;;;15.52;85.30
65758;BME280;52495;52.208;5.158;2022-08-21T05:54:28;101599.59;;;15.58;85.29
65758;BME280;52495;52.208;5.158;2022-08-21T05:56:54;101602.06;;;15.62;85.95
65758;BME280;52495;52.208;5.158;2022-08-21T05:59:21;101594.09;;;15.69;85.61
65758;BME280;52495;52.208;5.158;2022-08-21T06:01:48;101600.00;;;15.74;86.00
65758;BME280;52495;52.208;5.158;2022-08-21T06:04:18;101590.34;;;15.79;85.88
65758;BME280;52495;52.208;5.158;2022-08-21T06:06:45;101596.38;;;15.81;86.52
65758;BME280;52495;52.208;5.158;2022-08-21T06:09:12;101594.47;;;15.88;86.32
65758;BME280;52495;52.208;5.158;2022-08-21T06:11:40;101588.28;;;15.92;86.59
65758;BME280;52495;52.208;5.158;2022-08-21T06:14:07;101589.88;;;15.98;86.85
65758;BME280;52495;52.208;5.158;2022-08-21T06:16:34;101586.16;;;16.06;86.49
65758;BME280;52495;52.208;5.158;2022-08-21T06:19:01;101591.19;;;16.13;86.54
65758;BME280;52495;52.208;5.158;2022-08-21T06:21:28;101589.28;;;16.19;86.78
65758;BME280;52495;52.208;5.158;2022-08-21T06:23:54;101589.88;;;16.28;86.92
65758;BME280;52495;52.208;5.158;2022-08-21T06:26:21;101594.84;;;16.37;86.92
65758;BME280;52495;52.208;5.158;2022-08-21T06:28:50;101588.50;;;16.46;87.14
65758;BME280;52495;52.208;5.158;2022-08-21T06:31:19;101585.59;;;16.55;87.37
65758;BME280;52495;52.208;5.158;2022-08-21T06:33:47;101586.25;;;16.63;87.05
65758;BME280;52495;52.208;5.158;2022-08-21T06:36:14;101588.63;;;16.69;87.47
65758;BME280;52495;52.208;5.158;2022-08-21T06:38:41;101590.09;;;16.78;87.48
65758;BME280;52495;52.208;5.158;2022-08-21T06:41:09;101589.88;;;16.86;87.34
65758;BME280;52495;52.208;5.158;2022-08-21T06:43:35;101586.16;;;16.93;87.24
65758;BME280;52495;52.208;5.158;2022-08-21T06:46:04;101578.13;;;17.01;87.13
65758;BME280;52495;52.208;5.158;2022-08-21T06:48:30;101584.75;;;17.11;87.04
65758;BME280;52495;52.208;5.158;2022-08-21T06:50:59;101584.44;;;17.21;86.66
65758;BME280;52495;52.208;5.158;2022-08-21T06:53:26;101585.09;;;17.27;86.22
65758;BME280;52495;52.208;5.158;2022-08-21T06:55:53;101576.03;;;17.38;85.94
65758;BME280;52495;52.208;5.158;2022-08-21T06:58:19;101575.78;;;17.45;85.51
65758;BME280;52495;52.208;5.158;2022-08-21T07:00:49;101585.91;;;17.55;85.37
65758;BME280;52495;52.208;5.158;2022-08-21T07:03:21;101590.88;;;17.63;85.12
65758;BME280;52495;52.208;5.158;2022-08-21T07:05:47;101585.56;;;17.66;84.78
65758;BME280;52495;52.208;5.158;2022-08-21T07:08:14;101587.94;;;17.72;84.36
65758;BME280;52495;52.208;5.158;2022-08-21T07:10:42;101579.81;;;17.80;83.92
65758;BME280;52495;52.208;5.158;2022-08-21T07:13:10;101578.75;;;17.85;83.90
65758;BME280;52495;52.208;5.158;2022-08-21T07:15:36;101579.25;;;17.95;83.75
65758;BME280;52495;52.208;5.158;2022-08-21T07:18:03;101576.59;;;17.97;83.27
65758;BME280;52495;52.208;5.158;2022-08-21T07:20:31;101577.09;;;18.08;83.54
65758;BME280;52495;52.208;5.158;2022-08-21T07:23:03;101584.72;;;18.14;83.10
65758;BME280;52495;52.208;5.158;2022-08-21T07:25:31;101587.94;;;18.21;82.88
65758;BME280;52495;52.208;5.158;2022-08-21T07:27:58;101585.16;;;18.26;82.58
65758;BME280;52495;52.208;5.158;2022-08-21T07:30:24;101586.78;;;18.28;82.23
65758;BME280;52495;52.208;5.158;2022-08-21T07:32:51;101585.84;;;18.31;82.42
65758;BME280;52495;52.208;5.158;2022-08-21T07:35:19;101585.47;;;18.40;82.56
65758;BME280;52495;52.208;5.158;2022-08-21T07:37:48;101580.75;;;18.50;82.07
65758;BME280;52495;52.208;5.158;2022-08-21T07:40:16;101587.44;;;18.57;81.70
65758;BME280;52495;52.208;5.158;2022-08-21T07:42:46;101595.03;;;18.63;81.38
65758;BME280;52495;52.208;5.158;2022-08-21T07:45:15;101591.22;;;18.72;81.17
65758;BME280;52495;52.208;5.158;2022-08-21T07:47:42;101597.03;;;18.79;81.17
65758;BME280;52495;52.208;5.158;2022-08-21T07:50:09;101601.31;;;18.81;80.68
65758;BME280;52495;52.208;5.158;2022-08-21T07:52:36;101601.84;;;18.90;80.81
65758;BME280;52495;52.208;5.158;2022-08-21T07:55:07;101594.59;;;18.98;80.32
65758;BME280;52495;52.208;5.158;2022-08-21T07:57:34;101599.41;;;19.09;80.18
65758;BME280;52495;52.208;5.158;2022-08-21T08:00:01;101592.00;;;19.19;80.03
65758;BME280;52495;52.208;5.158;2022-08-21T08:02:38;101588.28;;;19.24;79.72
65758;BME280;52495;52.208;5.158;2022-08-21T08:05:08;101575.72;;;19.33;79.30
65758;BME280;52495;52.208;5.158;2022-08-21T08:07:36;101572.84;;;19.39;78.57
65758;BME280;52495;52.208;5.158;2022-08-21T08:10:06;101575.25;;;19.44;78.62
65758;BME280;52495;52.208;5.158;2022-08-21T08:12:33;101580.16;;;19.51;78.44
65758;BME280;52495;52.208;5.158;2022-08-21T08:15:00;101582.28;;;19.64;78.11
65758;BME280;52495;52.208;5.158;2022-08-21T08:17:27;101583.81;;;19.68;77.86
65758;BME280;52495;52.208;5.158;2022-08-21T08:19:54;101580.69;;;19.80;77.53
65758;BME280;52495;52.208;5.158;2022-08-21T08:22:22;101582.00;;;19.91;77.15
65758;BME280;52495;52.208;5.158;2022-08-21T08:24:51;101581.00;;;19.93;76.86
65758;BME280;52495;52.208;5.158;2022-08-21T08:27:22;101570.38;;;19.96;76.53
65758;BME280;52495;52.208;5.158;2022-08-21T08:29:49;101578.94;;;20.00;76.47
65758;BME280;52495;52.208;5.158;2022-08-21T08:32:16;101583.69;;;20.11;76.53
65758;BME280;52495;52.208;5.158;2022-08-21T08:34:44;101579.59;;;20.24;76.28
65758;BME280;52495;52.208;5.158;2022-08-21T08:37:12;101573.38;;;20.27;76.10
65758;BME280;52495;52.208;5.158;2022-08-21T08:39:39;101581.72;;;20.35;75.65
65758;BME280;52495;52.208;5.158;2022-08-21T08:42:08;101578.53;;;20.47;75.16
65758;BME280;52495;52.208;5.158;2022-08-21T08:44:37;101573.06;;;20.52;74.84
65758;BME280;52495;52.208;5.158;2022-08-21T08:47:05;101574.25;;;20.64;74.93
65758;BME280;52495;52.208;5.158;2022-08-21T08:49:37;101577.00;;;20.80;74.25
65758;BME280;52495;52.208;5.158;2022-08-21T08:52:09;101577.34;;;20.91;73.58
65758;BME280;52495;52.208;5.158;2022-08-21T08:54:42;101572.47;;;21.01;72.95
65758;BME280;52495;52.208;5.158;2022-08-21T08:57:19;101567.31;;;21.00;72.36
65758;BME280;52495;52.208;5.158;2022-08-21T08:59:51;101572.16;;;20.90;72.57
65758;BME280;52495;52.208;5.158;2022-08-21T09:02:19;101568.16;;;20.83;72.64
65758;BME280;52495;52.208;5.158;2022-08-21T09:04:47;101569.75;;;20.85;73.47
65758;BME280;52495;52.208;5.158;2022-08-21T09:07:22;101571.31;;;20.89;73.43
65758;BME280;52495;52.208;5.158;2022-08-21T09:09:58;101561.91;;;21.03;73.22
65758;BME280;52495;52.208;5.158;2022-08-21T09:12:37;101560.50;;;21.13;72.38
65758;BME280;52495;52.208;5.158;2022-08-21T09:15:18;101563.22;;;21.29;71.52
65758;BME280;52495;52.208;5.158;2022-08-21T09:18:10;101562.66;;;21.40;71.12
65758;BME280;52495;52.208;5.158;2022-08-21T09:20:48;101562.13;;;21.51;69.96
65758;BME280;52495;52.208;5.158;2022-08-21T09:23:28;101568.72;;;21.58;69.48
65758;BME280;52495;52.208;5.158;2022-08-21T09:26:02;101564.19;;;21.62;68.94
65758;BME280;52495;52.208;5.158;2022-08-21T09:28:33;101562.78;;;21.72;68.97
65758;BME280;52495;52.208;5.158;2022-08-21T09:31:05;101567.63;;;21.80;68.95
65758;BME280;52495;52.208;5.158;2022-08-21T09:33:32;101570.63;;;21.90;68.92
65758;BME280;52495;52.208;5.158;2022-08-21T09:35:59;101570.72;;;22.04;68.40
65758;BME280;52495;52.208;5.158;2022-08-21T09:38:30;101565.38;;;22.06;67.75
65758;BME280;52495;52.208;5.158;2022-08-21T09:41:01;101563.50;;;22.08;67.68
65758;BME280;52495;52.208;5.158;2022-08-21T09:43:29;101563.44;;;22.09;66.96
65758;BME280;52495;52.208;5.158;2022-08-21T09:46:10;101560.41;;;22.17;66.83
65758;BME280;52495;52.208;5.158;2022-08-21T09:48:43;101560.75;;;22.27;67.31
65758;BME280;52495;52.208;5.158;2022-08-21T09:51:12;101553.25;;;22.35;66.21
65758;BME280;52495;52.208;5.158;2022-08-21T09:53:43;101551.50;;;22.36;65.12
65758;BME280;52495;52.208;5.158;2022-08-21T09:56:20;101555.72;;;22.38;65.02
65758;BME280;52495;52.208;5.158;2022-08-21T09:59:17;101547.84;;;22.54;64.03
65758;BME280;52495;52.208;5.158;2022-08-21T10:01:48;101550.13;;;22.61;61.87
65758;BME280;52495;52.208;5.158;2022-08-21T10:04:20;101551.53;;;22.66;62.44
65758;BME280;52495;52.208;5.158;2022-08-21T10:06:46;101555.03;;;22.67;61.90
65758;BME280;52495;52.208;5.158;2022-08-21T10:09:17;101552.03;;;22.73;62.50
65758;BME280;52495;52.208;5.158;2022-08-21T10:11:52;101550.16;;;22.75;62.89
65758;BME280;52495;52.208;5.158;2022-08-21T10:14:34;101545.06;;;22.88;63.05
65758;BME280;52495;52.208;5.158;2022-08-21T10:17:12;101545.47;;;22.96;61.86
65758;BME280;52495;52.208;5.158;2022-08-21T10:22:22;101542.06;;;22.94;61.95
65758;BME280;52495;52.208;5.158;2022-08-21T10:24:57;101542.53;;;22.86;61.96
65758;BME280;52495;52.208;5.158;2022-08-21T10:27:27;101545.59;;;22.79;61.00
65758;BME280;52495;52.208;5.158;2022-08-21T10:30:00;101539.47;;;22.78;62.03
65758;BME280;52495;52.208;5.158;2022-08-21T10:32:54;101547.53;;;22.75;62.76
65758;BME280;52495;52.208;5.158;2022-08-21T10:35:26;101544.91;;;22.75;62.07
65758;BME280;52495;52.208;5.158;2022-08-21T10:38:11;101540.84;;;22.69;61.95
65758;BME280;52495;52.208;5.158;2022-08-21T10:40:48;101546.66;;;22.60;61.45
65758;BME280;52495;52.208;5.158;2022-08-21T10:43:26;101546.88;;;22.55;60.50
65758;BME280;52495;52.208;5.158;2022-08-21T10:46:02;101538.31;;;22.52;60.44
65758;BME280;52495;52.208;5.158;2022-08-21T10:48:37;101539.25;;;22.51;60.95
65758;BME280;52495;52.208;5.158;2022-08-21T10:51:10;101548.34;;;22.45;62.19
65758;BME280;52495;52.208;5.158;2022-08-21T10:53:52;101544.44;;;22.36;63.47
65758;BME280;52495;52.208;5.158;2022-08-21T10:56:22;101545.44;;;22.18;64.06
65758;BME280;52495;52.208;5.158;2022-08-21T10:59:00;101539.69;;;22.11;64.69
65758;BME280;52495;52.208;5.158;2022-08-21T11:01:32;101537.50;;;22.19;64.34
65758;BME280;52495;52.208;5.158;2022-08-21T11:04:16;101546.53;;;22.13;63.50
65758;BME280;52495;52.208;5.158;2022-08-21T11:06:49;101537.50;;;22.19;63.62
65758;BME280;52495;52.208;5.158;2022-08-21T11:09:19;101546.22;;;22.36;63.21
65758;BME280;52495;52.208;5.158;2022-08-21T11:11:50;101541.06;;;22.50;62.29
65758;BME280;52495;52.208;5.158;2022-08-21T11:14:28;101538.75;;;22.60;59.84
65758;BME280;52495;52.208;5.158;2022-08-21T11:17:00;101544.91;;;22.75;59.13
65758;BME280;52495;52.208;5.158;2022-08-21T11:19:36;101530.34;;;22.84;57.72
65758;BME280;52495;52.208;5.158;2022-08-21T11:22:11;101535.41;;;23.03;58.32
65758;BME280;52495;52.208;5.158;2022-08-21T11:24:44;101535.34;;;23.19;57.79
65758;BME280;52495;52.208;5.158;2022-08-21T11:27:14;101542.09;;;23.39;57.58
65758;BME280;52495;52.208;5.158;2022-08-21T11:29:48;101526.00;;;23.58;57.19
65758;BME280;52495;52.208;5.158;2022-08-21T11:32:32;101530.41;;;23.72;56.99
65758;BME280;52495;52.208;5.158;2022-08-21T11:35:13;101521.09;;;23.81;56.86
65758;BME280;52495;52.208;5.158;2022-08-21T11:38:00;101535.47;;;23.75;57.33
65758;BME280;52495;52.208;5.158;2022-08-21T11:40:48;101532.75;;;23.77;57.45
65758;BME280;52495;52.208;5.158;2022-08-21T11:43:23;101528.50;;;23.74;57.19
65758;BME280;52495;52.208;5.158;2022-08-21T11:45:54;101535.66;;;23.87;56.76
65758;BME280;52495;52.208;5.158;2022-08-21T11:48:39;101537.94;;;23.78;55.39
65758;BME280;52495;52.208;5.158;2022-08-21T11:51:17;101534.16;;;23.97;55.62
65758;BME280;52495;52.208;5.158;2022-08-21T11:53:48;101548.75;;;24.03;55.34
65758;BME280;52495;52.208;5.158;2022-08-21T11:56:21;101547.94;;;24.02;54.99
65758;BME280;52495;52.208;5.158;2022-08-21T11:58:51;101543.59;;;23.87;55.79
65758;BME280;52495;52.208;5.158;2022-08-21T12:01:22;101548.47;;;23.78;55.18
65758;BME280;52495;52.208;5.158;2022-08-21T12:03:55;101543.97;;;23.80;55.35
65758;BME280;52495;52.208;5.158;2022-08-21T12:06:33;101544.97;;;23.49;55.68
65758;BME280;52495;52.208;5.158;2022-08-21T12:09:06;101544.81;;;23.52;55.50
65758;BME280;52495;52.208;5.158;2022-08-21T12:11:45;101547.25;;;23.55;54.95
65758;BME280;52495;52.208;5.158;2022-08-21T12:14:14;101540.41;;;23.67;55.00
65758;BME280;52495;52.208;5.158;2022-08-21T12:16:43;101530.88;;;23.79;53.94
65758;BME280;52495;52.208;5.158;2022-08-21T12:19:12;101542.66;;;23.73;54.02
65758;BME280;52495;52.208;5.158;2022-08-21T12:21:51;101535.19;;;23.94;54.24
65758;BME280;52495;52.208;5.158;2022-08-21T12:24:36;101536.69;;;24.13;53.83
65758;BME280;52495;52.208;5.158;2022-08-21T12:27:21;101540.34;;;24.10;52.62
65758;BME280;52495;52.208;5.158;2022-08-21T12:29:54;101537.72;;;24.10;52.61
65758;BME280;52495;52.208;5.158;2022-08-21T12:32:27;101538.41;;;24.42;52.48
65758;BME280;52495;52.208;5.158;2022-08-21T12:35:01;101544.56;;;24.55;51.89
65758;BME280;52495;52.208;5.158;2022-08-21T12:37:36;101543.19;;;24.62;51.17
65758;BME280;52495;52.208;5.158;2022-08-21T12:40:11;101540.16;;;24.68;51.27
65758;BME280;52495;52.208;5.158;2022-08-21T12:42:44;101550.06;;;24.52;51.98
65758;BME280;52495;52.208;5.158;2022-08-21T12:45:19;101543.94;;;24.64;51.81
65758;BME280;52495;52.208;5.158;2022-08-21T12:47:49;101545.28;;;24.72;51.79
65758;BME280;52495;52.208;5.158;2022-08-21T12:50:23;101549.16;;;24.38;52.15
65758;BME280;52495;52.208;5.158;2022-08-21T12:52:58;101547.03;;;24.44;51.87
65758;BME280;52495;52.208;5.158;2022-08-21T12:55:29;101545.31;;;24.57;52.10
65758;BME280;52495;52.208;5.158;2022-08-21T12:57:57;101549.19;;;24.51;51.58
65758;BME280;52495;52.208;5.158;2022-08-21T13:00:26;101547.78;;;24.46;51.48
65758;BME280;52495;52.208;5.158;2022-08-21T13:02:55;101549.75;;;24.57;52.17
65758;BME280;52495;52.208;5.158;2022-08-21T13:05:30;101564.25;;;24.64;51.64
65758;BME280;52495;52.208;5.158;2022-08-21T13:08:03;101556.63;;;24.59;51.82